Time;durP1;ratioP1;P1;durP2;ratioP2;P2;SDS_P1;SDS_P2;PMS_P1;PMS_P2;Temp;Humidity;BMP_temperature;BMP_pressure;BME280_temperature;BME280_humidity;BME280_pressure;Samples;Min_cycle;Max_cycle;Signal;HPM_P1;HPM_P2
2022/02/28 00:01:06;;;;;;;38.40;20.68;;;5.50;87.60;;;;;;1918634;75;21480;-50
2022/02/28 00:03:36;;;;;;;45.15;23.20;;;5.40;87.50;;;;;;1918737;75;21065;-49
2022/02/28 00:06:05;;;;;;;43.70;22.10;;;5.40;87.60;;;;;;1918753;75;21057;-51
2022/02/28 00:08:35;;;;;;;38.48;21.25;;;5.40;87.40;;;;;;1918699;75;21123;-49
2022/02/28 00:11:04;;;;;;;39.18;19.17;;;5.40;87.30;;;;;;1918617;75;21104;-51
2022/02/28 00:13:34;;;;;;;30.05;15.15;;;5.50;87.30;;;;;;1918699;74;21469;-48
2022/02/28 00:16:03;;;;;;;35.40;17.62;;;5.50;87.50;;;;;;1918589;75;21006;-51
2022/02/28 00:18:33;;;;;;;34.63;18.05;;;5.40;87.30;;;;;;1918533;75;21116;-51
2022/02/28 00:21:03;;;;;;;43.15;21.87;;;5.40;87.80;;;;;;1918690;75;21030;-51
2022/02/28 00:23:32;;;;;;;41.15;19.67;;;5.40;87.30;;;;;;1918646;74;21050;-50
2022/02/28 00:26:02;;;;;;;39.98;20.70;;;5.40;87.30;;;;;;1918599;75;21034;-52
2022/02/28 00:28:31;;;;;;;37.83;20.80;;;5.40;87.30;;;;;;1912556;75;21145;-52
2022/02/28 00:31:01;;;;;;;29.75;15.58;;;5.40;87.40;;;;;;1909492;75;21034;-51
2022/02/28 00:33:30;;;;;;;38.15;20.00;;;5.40;87.30;;;;;;1909336;75;21031;-49
2022/02/28 00:36:00;;;;;;;43.87;21.42;;;5.30;87.30;;;;;;1909572;75;21034;-50
2022/02/28 00:38:29;;;;;;;35.43;18.77;;;5.40;87.40;;;;;;1909490;75;21104;-51
2022/02/28 00:40:58;;;;;;;46.48;21.00;;;5.40;87.20;;;;;;1909395;75;21097;-51
2022/02/28 00:43:28;;;;;;;39.25;20.12;;;5.30;87.30;;;;;;1909402;75;21007;-50
2022/02/28 00:45:57;;;;;;;43.63;20.15;;;5.30;87.40;;;;;;1909356;75;21034;-51
2022/02/28 00:48:26;;;;;;;37.55;19.77;;;5.40;87.50;;;;;;1909389;75;21030;-47
2022/02/28 00:50:56;;;;;;;41.77;21.45;;;5.40;87.60;;;;;;1909367;75;21054;-51
2022/02/28 00:53:25;;;;;;;40.67;19.70;;;5.40;87.50;;;;;;1909324;75;21179;-51
2022/02/28 00:55:55;;;;;;;37.30;20.37;;;5.40;87.30;;;;;;1909345;75;21058;-49
2022/02/28 00:58:24;;;;;;;32.17;16.77;;;5.40;87.20;;;;;;1909350;75;21104;-51
2022/02/28 01:00:53;;;;;;;40.90;17.73;;;5.40;87.30;;;;;;1909453;75;21031;-51
2022/02/28 01:03:23;;;;;;;22.55;11.50;;;5.40;87.10;;;;;;1909514;75;21038;-50
2022/02/28 01:05:53;;;;;;;38.98;18.98;;;5.40;87.00;;;;;;1909504;75;21050;-51
2022/02/28 01:08:22;;;;;;;31.62;15.08;;;5.40;87.20;;;;;;1909324;74;21113;-50
2022/02/28 01:10:52;;;;;;;32.10;16.65;;;5.30;87.20;;;;;;1909406;75;21112;-51
2022/02/28 01:13:22;;;;;;;38.48;22.02;;;5.30;87.30;;;;;;1909361;75;21044;-49
2022/02/28 01:15:52;;;;;;;42.55;20.95;;;5.30;87.40;;;;;;1909631;75;21047;-51
2022/02/28 01:18:21;;;;;;;44.70;23.10;;;5.30;87.50;;;;;;1909484;75;21022;-51
2022/02/28 01:20:51;;;;;;;47.45;21.45;;;5.30;87.50;;;;;;1909463;74;21097;-49
2022/02/28 01:23:21;;;;;;;40.95;19.20;;;5.30;87.70;;;;;;1909405;75;21030;-51
2022/02/28 01:25:50;;;;;;;32.13;14.90;;;5.30;87.60;;;;;;1909289;75;21006;-50
2022/02/28 01:28:20;;;;;;;27.25;14.23;;;5.30;87.50;;;;;;1906850;75;21063;-50
2022/02/28 01:30:50;;;;;;;46.53;22.80;;;5.30;87.70;;;;;;1902075;75;21035;-49
2022/02/28 01:33:19;;;;;;;35.40;17.62;;;5.30;87.70;;;;;;1901973;75;21070;-51
2022/02/28 01:35:48;;;;;;;42.40;22.48;;;5.20;87.80;;;;;;1902066;75;21034;-51
2022/02/28 01:38:18;;;;;;;27.07;15.30;;;5.30;87.80;;;;;;1901984;75;21054;-52
2022/02/28 01:40:48;;;;;;;40.38;19.87;;;5.30;88.00;;;;;;1902020;75;21101;-51
2022/02/28 01:43:17;;;;;;;37.42;18.17;;;5.30;87.90;;;;;;1902002;75;21066;-49
2022/02/28 01:45:46;;;;;;;34.85;18.90;;;5.30;87.80;;;;;;1902125;75;21078;-48
2022/02/28 01:48:16;;;;;;;39.33;19.50;;;5.40;87.80;;;;;;1902116;75;21090;-49
2022/02/28 01:50:45;;;;;;;44.90;21.73;;;5.40;87.90;;;;;;1902024;75;21125;-51
2022/02/28 01:53:15;;;;;;;41.37;21.15;;;5.30;87.70;;;;;;1901984;75;21034;-51
2022/02/28 01:55:44;;;;;;;40.90;21.30;;;5.40;87.80;;;;;;1902052;75;21035;-49
2022/02/28 01:58:14;;;;;;;46.28;21.27;;;5.40;88.00;;;;;;1902030;75;21170;-49
2022/02/28 02:00:43;;;;;;;42.90;21.50;;;5.40;88.10;;;;;;1902073;75;21128;-50
2022/02/28 02:03:13;;;;;;;35.25;17.77;;;5.40;87.90;;;;;;1902030;75;21030;-50
2022/02/28 02:05:42;;;;;;;44.20;22.02;;;5.40;87.90;;;;;;1902016;75;21031;-51
2022/02/28 02:08:11;;;;;;;47.20;22.00;;;5.40;88.10;;;;;;1901970;75;21007;-52
2022/02/28 02:10:41;;;;;;;47.30;22.80;;;5.40;88.20;;;;;;1902021;75;21105;-51
2022/02/28 02:13:11;;;;;;;35.08;18.17;;;5.40;88.30;;;;;;1901910;75;21104;-50
2022/02/28 02:15:41;;;;;;;44.95;20.40;;;5.40;88.30;;;;;;1902208;75;21030;-52
2022/02/28 02:18:11;;;;;;;43.70;23.07;;;5.40;88.30;;;;;;1901976;75;21126;-51
2022/02/28 02:20:40;;;;;;;42.90;23.47;;;5.40;88.30;;;;;;1902002;75;21034;-51
2022/02/28 02:23:13;;;;;;;42.00;21.75;;;5.40;88.50;;;;;;1902035;75;21094;-51
2022/02/28 02:25:44;;;;;;;37.00;20.90;;;5.30;88.50;;;;;;1902084;75;21035;-50
2022/02/28 02:28:19;;;;;;;47.93;23.55;;;5.30;88.50;;;;;;1901800;75;21110;-51
2022/02/28 02:30:53;;;;;;;37.88;20.50;;;5.30;88.50;;;;;;1901711;75;21177;-51
2022/02/28 02:33:23;;;;;;;42.40;20.05;;;5.30;88.80;;;;;;1902089;75;21124;-50
2022/02/28 02:35:56;;;;;;;38.45;19.32;;;5.30;88.70;;;;;;1901961;75;21031;-51
2022/02/28 02:38:26;;;;;;;37.58;18.02;;;5.30;88.70;;;;;;1901937;75;21571;-49
2022/02/28 02:40:56;;;;;;;43.98;22.67;;;5.30;88.90;;;;;;1902155;75;21027;-52
2022/02/28 02:43:25;;;;;;;40.63;20.62;;;5.30;88.80;;;;;;1902060;75;21006;-51
2022/02/28 02:45:55;;;;;;;41.88;21.65;;;5.30;88.70;;;;;;1902110;75;21454;-51
2022/02/28 02:48:26;;;;;;;44.77;21.45;;;5.30;88.90;;;;;;1902076;75;21035;-50
2022/02/28 02:51:16;;;;;;;39.42;19.85;;;5.30;89.00;;;;;;1902120;75;21132;-51
2022/02/28 02:53:45;;;;;;;38.45;20.05;;;5.30;89.00;;;;;;1902031;75;21498;-49
2022/02/28 02:56:14;;;;;;;42.80;22.70;;;5.30;88.90;;;;;;1902226;75;21082;-53
2022/02/28 02:58:45;;;;;;;44.60;21.77;;;5.30;88.80;;;;;;1901498;75;21031;-52
2022/02/28 03:01:14;;;;;;;32.03;17.12;;;5.30;89.00;;;;;;1902255;75;21035;-49
2022/02/28 03:03:44;;;;;;;39.03;19.80;;;5.30;89.00;;;;;;1902034;75;21035;-50
2022/02/28 03:06:14;;;;;;;44.30;21.35;;;5.30;89.00;;;;;;1902150;75;21116;-50
2022/02/28 03:08:43;;;;;;;40.75;21.75;;;5.30;89.00;;;;;;1902074;75;21027;-50
2022/02/28 03:11:13;;;;;;;34.85;19.40;;;5.30;89.00;;;;;;1902105;75;21137;-52
2022/02/28 03:13:43;;;;;;;29.50;17.67;;;5.30;88.80;;;;;;1902194;75;20999;-48
2022/02/28 03:16:13;;;;;;;28.20;13.95;;;5.30;88.70;;;;;;1902291;75;21104;-52
2022/02/28 03:18:43;;;;;;;28.10;15.18;;;5.30;88.60;;;;;;1902073;75;21003;-49
2022/02/28 03:21:12;;;;;;;25.85;16.23;;;5.20;88.70;;;;;;1902129;75;21112;-49
2022/02/28 03:23:42;;;;;;;37.98;21.05;;;5.10;88.60;;;;;;1902176;75;21101;-51
2022/02/28 03:26:11;;;;;;;19.65;10.53;;;5.10;88.70;;;;;;1902036;75;21011;-48
2022/02/28 03:28:42;;;;;;;35.05;17.77;;;5.10;88.80;;;;;;1902088;75;21490;-52
2022/02/28 03:31:12;;;;;;;33.73;18.87;;;5.00;88.70;;;;;;1907910;75;21055;-51
2022/02/28 03:33:42;;;;;;;30.45;16.75;;;5.00;88.90;;;;;;1909304;75;21132;-52
2022/02/28 03:36:11;;;;;;;40.05;20.95;;;5.00;89.00;;;;;;1909323;75;21027;-50
2022/02/28 03:38:42;;;;;;;38.95;19.10;;;5.00;88.90;;;;;;1908739;75;21156;-49
2022/02/28 03:41:12;;;;;;;33.25;18.00;;;5.00;89.00;;;;;;1909493;75;21116;-51
2022/02/28 03:43:42;;;;;;;34.05;17.52;;;5.00;88.90;;;;;;1909507;75;21121;-51
2022/02/28 03:46:13;;;;;;;28.50;16.75;;;5.00;88.90;;;;;;1909477;75;21045;-51
2022/02/28 03:49:00;;;;;;;30.90;16.87;;;5.10;89.10;;;;;;1909381;75;21124;-50
2022/02/28 03:51:32;;;;;;;23.75;12.98;;;5.00;89.10;;;;;;1906464;75;21065;-48
2022/02/28 03:54:01;;;;;;;35.05;19.57;;;5.10;88.90;;;;;;1909362;75;21007;-52
2022/02/28 03:56:30;;;;;;;31.70;15.68;;;5.10;89.00;;;;;;1909467;75;21035;-51
2022/02/28 03:59:00;;;;;;;32.38;17.27;;;5.10;88.90;;;;;;1876936;75;21050;-50
2022/02/28 04:01:29;;;;;;;27.93;16.10;;;5.10;88.80;;;;;;1909482;75;21094;-50
2022/02/28 04:03:59;;;;;;;27.37;14.98;;;5.00;88.80;;;;;;1909384;75;21062;-50
2022/02/28 04:06:29;;;;;;;34.20;18.57;;;5.00;89.10;;;;;;1909393;75;21097;-49
2022/02/28 04:08:58;;;;;;;29.40;15.10;;;5.00;89.00;;;;;;1909377;75;21030;-51
2022/02/28 04:11:28;;;;;;;21.60;11.57;;;5.00;89.00;;;;;;1909489;75;21081;-49
2022/02/28 04:13:58;;;;;;;25.10;15.03;;;5.00;88.80;;;;;;1909337;75;21082;-51
2022/02/28 04:16:27;;;;;;;27.90;14.68;;;5.00;88.70;;;;;;1909429;75;21074;-50
2022/02/28 04:19:01;;;;;;;32.65;16.30;;;5.00;88.80;;;;;;1904308;75;21119;-51
2022/02/28 04:21:32;;;;;;;33.98;17.65;;;5.00;88.80;;;;;;1906666;75;21054;-50
2022/02/28 04:24:02;;;;;;;32.28;17.98;;;5.00;89.00;;;;;;1909207;75;21116;-50
2022/02/28 04:26:31;;;;;;;28.85;16.45;;;4.90;89.00;;;;;;1909185;74;21178;-50
2022/02/28 04:29:00;;;;;;;25.90;14.30;;;5.00;89.20;;;;;;1909314;75;21039;-51
2022/02/28 04:31:30;;;;;;;26.48;16.85;;;5.00;89.20;;;;;;1904438;75;21063;-49
2022/02/28 04:34:00;;;;;;;27.37;13.68;;;5.00;89.10;;;;;;1902144;75;21035;-49
2022/02/28 04:36:29;;;;;;;21.27;13.62;;;5.00;89.10;;;;;;1902147;75;21055;-51
2022/02/28 04:38:58;;;;;;;27.58;14.58;;;5.00;89.00;;;;;;1902223;75;21007;-51
2022/02/28 04:41:28;;;;;;;27.98;15.60;;;5.00;89.00;;;;;;1902089;75;21140;-49
2022/02/28 04:43:57;;;;;;;32.25;17.70;;;5.00;89.00;;;;;;1902254;75;21074;-51
2022/02/28 04:46:28;;;;;;;31.42;17.85;;;5.00;89.00;;;;;;1902251;75;21175;-51
2022/02/28 04:48:59;;;;;;;16.50;11.05;;;5.00;88.90;;;;;;1901875;75;21104;-52
2022/02/28 04:51:29;;;;;;;35.43;18.30;;;5.00;89.10;;;;;;1901331;75;21123;-50
2022/02/28 04:53:59;;;;;;;32.00;16.32;;;5.00;89.00;;;;;;1902219;75;21290;-52
2022/02/28 04:56:29;;;;;;;31.52;16.62;;;5.00;89.20;;;;;;1902389;75;21113;-52
2022/02/28 04:58:58;;;;;;;32.48;17.20;;;5.00;89.10;;;;;;1902158;75;21042;-51
2022/02/28 05:01:29;;;;;;;37.48;19.50;;;5.00;89.00;;;;;;1899408;75;21115;-52
2022/02/28 05:04:00;;;;;;;36.23;18.45;;;5.00;89.30;;;;;;1901930;75;21030;-52
2022/02/28 05:06:30;;;;;;;36.45;19.55;;;5.10;89.30;;;;;;1902017;75;21062;-50
2022/02/28 05:09:00;;;;;;;30.57;17.10;;;5.10;89.10;;;;;;1902049;75;21035;-53
2022/02/28 05:11:29;;;;;;;34.53;18.27;;;5.10;89.20;;;;;;1901997;75;21128;-52
2022/02/28 05:14:02;;;;;;;41.63;18.50;;;5.20;89.00;;;;;;1901990;75;21051;-51
2022/02/28 05:16:31;;;;;;;45.03;22.60;;;5.20;88.90;;;;;;1902158;75;21030;-52
2022/02/28 05:19:00;;;;;;;36.90;19.17;;;5.20;89.00;;;;;;1902111;75;21038;-52
2022/02/28 05:21:31;;;;;;;30.80;16.27;;;5.20;88.90;;;;;;1902161;75;21112;-52
2022/02/28 05:24:00;;;;;;;39.33;21.80;;;5.20;88.90;;;;;;1902013;75;21104;-52
2022/02/28 05:26:30;;;;;;;32.13;15.43;;;5.20;89.00;;;;;;1902000;75;21133;-53
2022/02/28 05:28:59;;;;;;;33.90;15.50;;;5.20;89.00;;;;;;1902006;75;21113;-52
2022/02/28 05:31:29;;;;;;;37.05;19.32;;;5.20;89.10;;;;;;1901992;75;21054;-52
2022/02/28 05:34:00;;;;;;;31.52;18.30;;;5.20;89.10;;;;;;1898138;75;21037;-53
2022/02/28 05:36:30;;;;;;;31.85;15.65;;;5.20;89.10;;;;;;1902083;75;21070;-50
2022/02/28 05:39:00;;;;;;;35.45;18.20;;;5.20;89.20;;;;;;1899070;75;21069;-51
2022/02/28 05:41:31;;;;;;;39.30;19.45;;;5.20;89.10;;;;;;1901934;75;21035;-52
2022/02/28 05:44:02;;;;;;;39.73;19.25;;;5.20;89.10;;;;;;1901890;75;21030;-50
2022/02/28 05:46:31;;;;;;;22.20;12.95;;;5.20;89.00;;;;;;1902112;75;21026;-53
2022/02/28 05:49:05;;;;;;;30.17;17.30;;;5.20;89.10;;;;;;1899305;75;21139;-53
2022/02/28 05:51:37;;;;;;;34.43;17.02;;;5.20;89.10;;;;;;1902096;75;21116;-50
2022/02/28 05:54:07;;;;;;;32.33;15.43;;;5.20;89.90;;;;;;1902053;75;21031;-52
2022/02/28 05:56:36;;;;;;;31.23;14.25;;;5.20;89.30;;;;;;1901976;75;21101;-53
2022/02/28 05:59:05;;;;;;;39.13;19.30;;;5.20;89.20;;;;;;1902077;75;21035;-51
2022/02/28 06:01:37;;;;;;;41.48;21.85;;;5.20;89.20;;;;;;1902015;75;21034;-53
2022/02/28 06:04:06;;;;;;;31.12;16.67;;;5.20;89.20;;;;;;1901990;75;21497;-52
2022/02/28 06:06:35;;;;;;;44.65;21.75;;;5.20;89.30;;;;;;1901980;75;21030;-53
2022/02/28 06:09:05;;;;;;;21.05;12.47;;;5.30;89.30;;;;;;1902173;75;21595;-51
2022/02/28 06:11:35;;;;;;;26.68;11.70;;;5.30;89.50;;;;;;1902178;75;21108;-52
2022/02/28 06:14:04;;;;;;;36.05;20.02;;;5.30;89.60;;;;;;1901851;75;21035;-52
2022/02/28 06:16:33;;;;;;;43.92;20.50;;;5.30;89.60;;;;;;1902037;75;21547;-52
2022/02/28 06:19:03;;;;;;;34.83;19.10;;;5.30;89.50;;;;;;1902196;75;21043;-52
2022/02/28 06:21:32;;;;;;;36.28;18.48;;;5.30;89.60;;;;;;1902064;75;21043;-52
2022/02/28 06:24:01;;;;;;;32.35;17.12;;;5.30;89.30;;;;;;1902086;75;21026;-51
2022/02/28 06:26:31;;;;;;;40.30;21.30;;;5.40;89.40;;;;;;1902196;75;21112;-50
2022/02/28 06:29:00;;;;;;;29.67;17.32;;;5.40;89.40;;;;;;1902143;75;21007;-51
2022/02/28 06:31:30;;;;;;;41.48;19.57;;;5.40;89.40;;;;;;1901999;75;21062;-52
2022/02/28 06:34:00;;;;;;;33.60;17.37;;;5.40;89.30;;;;;;1902118;75;21110;-51
2022/02/28 06:36:29;;;;;;;30.65;14.85;;;5.40;89.30;;;;;;1902109;75;21030;-52
2022/02/28 06:38:59;;;;;;;34.15;17.17;;;5.40;89.30;;;;;;1902132;75;21027;-52
2022/02/28 06:41:28;;;;;;;38.95;19.42;;;5.40;89.30;;;;;;1902175;75;21167;-52
2022/02/28 06:43:58;;;;;;;20.95;11.90;;;5.50;89.20;;;;;;1902165;75;21143;-52
2022/02/28 06:46:27;;;;;;;35.45;18.25;;;5.50;89.20;;;;;;1902193;75;21109;-51
2022/02/28 06:48:57;;;;;;;41.58;21.10;;;5.50;89.10;;;;;;1902126;75;21035;-52
2022/02/28 06:51:26;;;;;;;31.73;17.10;;;5.50;89.10;;;;;;1902075;75;21105;-51
2022/02/28 06:53:55;;;;;;;35.03;18.77;;;5.50;89.10;;;;;;1902119;75;21034;-51
2022/02/28 06:56:25;;;;;;;35.05;17.82;;;5.50;89.10;;;;;;1902007;75;21002;-51
2022/02/28 06:58:54;;;;;;;38.40;18.82;;;5.50;89.00;;;;;;1902207;75;21031;-51
2022/02/28 07:01:23;;;;;;;35.33;16.90;;;5.50;89.00;;;;;;1902156;75;21031;-52
2022/02/28 07:04:01;;;;;;;36.68;17.35;;;5.50;88.90;;;;;;1901058;75;21125;-51
2022/02/28 07:06:30;;;;;;;37.13;18.85;;;5.50;89.00;;;;;;1902205;75;21007;-52
2022/02/28 07:09:00;;;;;;;33.20;16.35;;;5.50;88.80;;;;;;1902035;75;21034;-51
2022/02/28 07:11:29;;;;;;;36.55;18.25;;;5.60;88.90;;;;;;1902154;75;21031;-52
2022/02/28 07:13:59;;;;;;;30.88;16.85;;;5.50;88.90;;;;;;1902101;75;21081;-52
2022/02/28 07:16:28;;;;;;;39.80;21.12;;;5.50;88.80;;;;;;1902181;75;21148;-51
2022/02/28 07:18:58;;;;;;;24.23;13.90;;;5.50;89.40;;;;;;1902155;75;21089;-52
2022/02/28 07:21:27;;;;;;;29.60;15.83;;;5.50;88.90;;;;;;1902034;75;21035;-51
2022/02/28 07:23:57;;;;;;;25.75;14.50;;;5.50;89.40;;;;;;1902086;75;21034;-52
2022/02/28 07:26:29;;;;;;;31.80;18.12;;;5.50;88.90;;;;;;1902128;75;21034;-54
2022/02/28 07:28:58;;;;;;;22.90;13.70;;;5.50;89.40;;;;;;1902044;75;21051;-52
2022/02/28 07:31:27;;;;;;;27.37;14.07;;;5.50;88.60;;;;;;1902055;75;21038;-52
2022/02/28 07:33:57;;;;;;;28.02;14.85;;;5.60;88.90;;;;;;1908662;75;21050;-54
2022/02/28 07:36:26;;;;;;;31.45;16.10;;;5.60;89.10;;;;;;1909379;75;21030;-53
2022/02/28 07:38:56;;;;;;;35.30;18.05;;;5.60;89.00;;;;;;1909228;75;21006;-53
2022/02/28 07:41:25;;;;;;;28.65;13.20;;;5.70;89.00;;;;;;1909217;75;21104;-53
2022/02/28 07:43:55;;;;;;;38.05;18.12;;;5.70;88.80;;;;;;1909204;75;21124;-52
2022/02/28 07:46:24;;;;;;;36.95;19.27;;;5.70;88.70;;;;;;1909200;75;21093;-51
2022/02/28 07:48:54;;;;;;;26.42;12.63;;;5.70;88.90;;;;;;1909355;75;21006;-53
2022/02/28 07:51:23;;;;;;;31.82;17.37;;;5.70;88.90;;;;;;1909356;75;21038;-52
2022/02/28 07:53:52;;;;;;;25.90;15.45;;;5.70;88.80;;;;;;1909186;75;21090;-53
2022/02/28 07:56:22;;;;;;;29.35;16.35;;;5.70;88.90;;;;;;1909423;75;21034;-51
2022/02/28 07:58:51;;;;;;;33.23;18.80;;;5.70;88.90;;;;;;1909461;75;21031;-53
2022/02/28 08:01:20;;;;;;;34.35;18.95;;;5.80;89.00;;;;;;1909290;75;21006;-54
2022/02/28 08:03:50;;;;;;;42.48;20.15;;;5.80;89.00;;;;;;1909401;75;21186;-53
2022/02/28 08:06:19;;;;;;;27.90;16.67;;;5.80;88.90;;;;;;1909243;75;21093;-53
2022/02/28 08:08:48;;;;;;;23.62;12.82;;;5.90;88.90;;;;;;1909320;75;21062;-52
2022/02/28 08:11:18;;;;;;;42.73;18.73;;;5.90;88.90;;;;;;1909381;75;21034;-51
2022/02/28 08:13:47;;;;;;;33.08;15.70;;;5.90;88.90;;;;;;1907839;75;21151;-53
2022/02/28 08:16:17;;;;;;;23.85;15.15;;;5.90;88.60;;;;;;1908755;75;21097;-51
2022/02/28 08:18:46;;;;;;;25.43;12.18;;;5.90;88.50;;;;;;1908671;75;21027;-48
2022/02/28 08:21:15;;;;;;;27.30;13.20;;;5.90;88.50;;;;;;1908604;75;21117;-53
2022/02/28 08:23:45;;;;;;;31.12;16.30;;;5.90;88.50;;;;;;1908615;74;21569;-54
2022/02/28 08:26:14;;;;;;;32.08;16.70;;;5.90;88.60;;;;;;1908566;75;21141;-50
2022/02/28 08:28:43;;;;;;;37.25;17.87;;;5.90;88.70;;;;;;1908711;75;21104;-53
2022/02/28 08:31:13;;;;;;;37.00;17.85;;;6.00;88.80;;;;;;1908707;75;21035;-52
2022/02/28 08:33:42;;;;;;;27.98;16.77;;;6.00;88.60;;;;;;1913467;75;21070;-52
2022/02/28 08:36:11;;;;;;;25.35;13.55;;;6.00;88.50;;;;;;1917718;75;21140;-52
2022/02/28 08:38:41;;;;;;;18.17;10.70;;;6.10;88.40;;;;;;1918033;74;21085;-49
2022/02/28 08:41:10;;;;;;;24.95;14.43;;;6.00;88.10;;;;;;1917765;75;21097;-51
2022/02/28 08:43:40;;;;;;;26.52;14.07;;;6.10;88.20;;;;;;1917800;74;21160;-53
2022/02/28 08:46:09;;;;;;;26.35;15.63;;;6.10;88.00;;;;;;1917745;75;21105;-53
2022/02/28 08:48:38;;;;;;;24.25;12.80;;;6.10;88.20;;;;;;1917825;75;21073;-53
2022/02/28 08:51:08;;;;;;;18.82;10.78;;;6.10;88.10;;;;;;1917778;74;21104;-50
2022/02/28 10:49:59;;;;;;;25.97;13.93;;;7.00;86.50;;;;;;1972948;72;25628;-48
2022/02/28 10:52:28;;;;;;;30.55;15.85;;;7.00;87.10;;;;;;1948267;73;21011;-48
2022/02/28 10:55:00;;;;;;;13.40;8.90;;;7.00;87.30;;;;;;1948505;73;21159;-48
2022/02/28 10:57:30;;;;;;;25.72;14.95;;;7.00;87.00;;;;;;1947560;73;21552;-47
2022/02/28 10:59:59;;;;;;;31.73;14.78;;;7.00;86.80;;;;;;1948266;73;21085;-49
2022/02/28 11:02:34;;;;;;;25.02;14.85;;;7.10;87.00;;;;;;1948264;73;21057;-49
2022/02/28 11:05:17;;;;;;;55.70;19.20;;;7.10;86.70;;;;;;1948491;73;21018;-49
2022/02/28 11:07:58;;;;;;;19.70;10.45;;;7.10;86.70;;;;;;1948313;73;21445;-48
2022/02/28 11:10:22;;;;;;;32.42;15.50;;;7.10;86.50;;;;;;1944091;73;21018;-48
2022/02/28 11:12:51;;;;;;;25.12;13.68;;;7.10;86.50;;;;;;1916832;75;21152;-53
2022/02/28 11:15:22;;;;;;;23.52;12.73;;;7.10;86.60;;;;;;1917409;75;21027;-51
2022/02/28 11:17:52;;;;;;;26.90;13.00;;;7.10;86.60;;;;;;1917844;75;21067;-51
2022/02/28 11:20:22;;;;;;;27.42;12.88;;;7.20;86.60;;;;;;1917688;75;21204;-51
2022/02/28 11:22:52;;;;;;;32.55;16.65;;;7.10;86.60;;;;;;1917553;75;21078;-49
2022/02/28 11:25:23;;;;;;;30.20;15.10;;;7.20;86.80;;;;;;1917590;74;21085;-50
2022/02/28 11:27:53;;;;;;;20.20;11.55;;;7.20;86.50;;;;;;1917766;75;21027;-50
2022/02/28 11:30:24;;;;;;;28.98;15.93;;;7.20;86.40;;;;;;1917317;75;21026;-49
2022/02/28 11:32:59;;;;;;;31.52;15.93;;;7.20;86.50;;;;;;1917588;75;21054;-46
2022/02/28 11:35:53;;;;;;;;;;;7.20;86.40;;;;;;1920525;75;21062;-47
2022/02/28 11:38:25;;;;;;;39.60;18.70;;;7.10;86.20;;;;;;1917548;75;20191;-52
2022/02/28 11:41:00;;;;;;;22.80;12.15;;;7.20;86.60;;;;;;1917628;75;21523;-48
2022/02/28 11:43:42;;;;;;;;;;;7.10;86.50;;;;;;1920381;73;21074;-47
2022/02/28 11:46:14;;;;;;;25.82;13.30;;;7.10;86.70;;;;;;1917513;74;20270;-48
2022/02/28 11:48:51;;;;;;;23.67;13.22;;;7.10;86.70;;;;;;1919354;74;21038;-48
2022/02/28 11:51:31;;;;;;;23.80;14.47;;;7.10;87.00;;;;;;1924524;74;21151;-48
2022/02/28 11:54:09;;;;;;;26.25;14.30;;;7.10;87.30;;;;;;1924564;74;21104;-50
2022/02/28 11:56:41;;;;;;;30.02;16.20;;;7.00;87.20;;;;;;1922657;74;21027;-48
2022/02/28 11:59:25;;;;;;;36.53;18.02;;;7.10;87.30;;;;;;1924406;74;21097;-47
2022/02/28 12:02:00;;;;;;;31.42;15.68;;;7.10;87.40;;;;;;1923947;74;21096;-49
2022/02/28 12:04:44;;;;;;;29.12;15.30;;;7.10;87.50;;;;;;1924080;74;21135;-48
2022/02/28 12:07:25;;;;;;;33.18;17.02;;;7.10;87.60;;;;;;1924052;74;21010;-50
2022/02/28 12:10:08;;;;;;;28.27;12.70;;;7.10;87.40;;;;;;1923956;74;21062;-50
2022/02/28 12:12:40;;;;;;;25.02;11.83;;;7.10;87.40;;;;;;1923748;74;21086;-48
2022/02/28 12:15:11;;;;;;;34.55;17.57;;;7.10;87.50;;;;;;1923896;74;21066;-48
2022/02/28 12:17:43;;;;;;;35.48;15.98;;;7.10;87.50;;;;;;1924088;74;21023;-48
2022/02/28 12:20:30;;;;;;;25.70;14.28;;;7.20;87.60;;;;;;1923983;74;20995;-55
2022/02/28 12:23:11;;;;;;;27.45;14.33;;;7.20;88.10;;;;;;1924776;74;21078;-55
2022/02/28 12:25:58;;;;;;;37.88;17.48;;;7.20;87.70;;;;;;1924717;74;21101;-55
2022/02/28 12:28:40;;;;;;;20.50;12.33;;;7.20;87.80;;;;;;1924732;74;21531;-55
2022/02/28 12:31:14;;;;;;;22.52;11.90;;;7.20;88.10;;;;;;1924988;74;21026;-54
2022/02/28 12:33:46;;;;;;;37.00;18.87;;;7.20;87.90;;;;;;1924654;74;21108;-55
2022/02/28 12:36:17;;;;;;;28.30;12.68;;;7.20;88.00;;;;;;1924831;74;21084;-55
2022/02/28 12:38:52;;;;;;;34.15;18.15;;;7.20;88.10;;;;;;1924604;74;21453;-55
2022/02/28 12:41:22;;;;;;;;;;;7.20;87.90;;;;;;1926684;74;21042;-55
2022/02/28 12:43:52;;;;;;;17.30;10.72;;;7.20;88.30;;;;;;1924740;74;20101;-55
2022/02/28 12:46:24;;;;;;;31.65;16.75;;;7.20;88.30;;;;;;1924577;74;21096;-55
2022/02/28 12:48:53;;;;;;;27.82;13.55;;;7.20;88.30;;;;;;1922811;74;21010;-55
2022/02/28 12:51:26;;;;;;;31.40;15.55;;;7.20;88.40;;;;;;1905420;75;21043;-55
2022/02/28 12:54:20;;;;;;;29.30;12.55;;;7.20;88.10;;;;;;1905333;75;21168;-55
2022/02/28 12:56:58;;;;;;;28.38;14.53;;;7.20;88.30;;;;;;1904995;74;21085;-54
2022/02/28 12:59:38;;;;;;;27.32;14.63;;;7.30;88.40;;;;;;1905306;75;21089;-54
2022/02/28 13:02:09;;;;;;;35.92;17.30;;;7.30;88.40;;;;;;1905278;74;21027;-55
2022/02/28 13:04:42;;;;;;;29.05;15.45;;;7.30;88.30;;;;;;1905370;75;21066;-55
2022/02/28 13:07:12;;;;;;;28.95;12.63;;;7.30;88.40;;;;;;1903339;74;21023;-55
2022/02/28 13:09:43;;;;;;;32.40;16.40;;;7.30;88.40;;;;;;1905282;74;21023;-55
2022/02/28 13:12:13;;;;;;;29.42;14.23;;;7.30;88.50;;;;;;1905367;75;21032;-54
2022/02/28 13:14:44;;;;;;;29.70;15.72;;;7.20;88.50;;;;;;1905299;74;21023;-55
2022/02/28 13:17:15;;;;;;;35.63;16.87;;;7.30;88.60;;;;;;1905409;74;21019;-55
2022/02/28 13:19:46;;;;;;;32.40;14.05;;;7.30;88.60;;;;;;1905232;75;21019;-54
2022/02/28 13:22:21;;;;;;;31.35;15.10;;;7.30;88.60;;;;;;1905538;75;21113;-55
2022/02/28 13:24:51;;;;;;;27.80;14.55;;;7.30;88.70;;;;;;1905365;74;21023;-53
2022/02/28 13:27:20;;;;;;;32.00;15.83;;;7.30;88.70;;;;;;1905315;75;21050;-55
2022/02/28 13:29:49;;;;;;;41.92;18.02;;;7.30;88.50;;;;;;1905308;74;21055;-55
2022/02/28 13:32:20;;;;;;;37.90;17.10;;;7.30;88.40;;;;;;1905298;75;21438;-54
2022/02/28 13:34:49;;;;;;;33.33;16.32;;;7.30;88.70;;;;;;1905554;75;20996;-54
2022/02/28 13:37:21;;;;;;;30.15;14.55;;;7.40;88.60;;;;;;1905339;75;20995;-54
2022/02/28 13:39:53;;;;;;;31.48;16.00;;;7.40;88.70;;;;;;1905251;75;21047;-54
2022/02/28 13:42:26;;;;;;;24.43;12.60;;;7.40;88.70;;;;;;1905327;75;21023;-55
2022/02/28 13:45:07;;;;;;;34.43;16.87;;;7.40;88.70;;;;;;1905299;75;21015;-55
2022/02/28 13:47:38;;;;;;;28.40;13.98;;;7.40;88.50;;;;;;1905292;75;21000;-55
2022/02/28 13:50:09;;;;;;;27.60;12.90;;;7.30;88.40;;;;;;1912405;74;21103;-55
2022/02/28 13:52:40;;;;;;;24.27;13.08;;;7.40;88.50;;;;;;1924683;74;21450;-55
2022/02/28 13:55:14;;;;;;;30.95;15.05;;;7.40;88.60;;;;;;1924604;74;21094;-55
2022/02/28 13:57:45;;;;;;;30.60;13.97;;;7.30;88.50;;;;;;1924901;74;21015;-53
2022/02/28 14:00:25;;;;;;;15.65;10.13;;;7.40;88.50;;;;;;1924302;74;21092;-55
2022/02/28 14:02:56;;;;;;;25.80;13.00;;;7.40;88.30;;;;;;1924623;74;21034;-55
2022/02/28 14:05:28;;;;;;;26.73;13.13;;;7.40;88.20;;;;;;1924706;74;21007;-55
2022/02/28 14:08:00;;;;;;;29.87;14.58;;;7.30;88.10;;;;;;1911914;74;21462;-55
2022/02/28 14:10:31;;;;;;;29.45;13.93;;;7.30;88.10;;;;;;1924543;74;21015;-55
2022/02/28 14:13:19;;;;;;;34.85;16.00;;;7.30;88.10;;;;;;1924622;74;21065;-54
2022/02/28 14:15:55;;;;;;;24.77;12.18;;;7.40;88.20;;;;;;1924751;74;21088;-54
2022/02/28 14:18:23;;;;;;;;;;;7.30;88.20;;;;;;1927515;74;21034;-55
2022/02/28 14:20:53;;;;;;;24.82;13.08;;;7.30;88.20;;;;;;1924580;74;20109;-54
2022/02/28 14:23:48;;;;;;;30.40;14.90;;;7.30;88.20;;;;;;1924614;74;21071;-53
2022/02/28 14:26:19;;;;;;;30.20;14.60;;;7.30;88.10;;;;;;1924490;74;21039;-54
2022/02/28 14:29:10;;;;;;;32.05;16.35;;;7.30;88.10;;;;;;1924789;74;21026;-53
2022/02/28 14:31:58;;;;;;;26.57;12.37;;;7.40;88.20;;;;;;1924848;74;21046;-53
2022/02/28 14:34:29;;;;;;;32.25;16.35;;;7.40;88.30;;;;;;1924479;74;21022;-52
2022/02/28 14:36:58;;;;;;;30.70;16.23;;;7.30;88.20;;;;;;1924575;74;21019;-55
2022/02/28 14:39:28;;;;;;;31.20;16.12;;;7.30;88.50;;;;;;1924577;74;21084;-54
2022/02/28 14:41:57;;;;;;;31.68;14.90;;;7.40;88.50;;;;;;1924577;74;21018;-53
2022/02/28 14:44:28;;;;;;;31.37;16.00;;;7.30;88.40;;;;;;1924531;74;21027;-53
2022/02/28 14:46:58;;;;;;;30.68;15.28;;;7.40;88.50;;;;;;1924683;74;21035;-54
2022/02/28 14:49:27;;;;;;;25.92;13.83;;;7.40;88.60;;;;;;1924523;74;21022;-54
2022/02/28 14:51:56;;;;;;;34.55;15.38;;;7.40;88.60;;;;;;1907527;74;21052;-53
2022/02/28 14:54:27;;;;;;;36.35;18.52;;;7.40;88.60;;;;;;1905244;74;21052;-54